الصفحة الرئيسية
METAR-TAF:

METAR-TAF

مطار :

مطار ليبرفيل الدولي

ليبرفيل, الغابون

دائرة عرض: 00-27N, خط طول: 009-25E, ارتفاع: 12 متر

مراقبة الطقس الحالي

تاريخ ووقت الإصدار 18 دقيقة قبل الساعة 19:00UTC
ريح 6 عقدة من الغرب/الجنوب الغربي
درجة الحرارة 28°درجة مئوية
الرطوبة 79%
ضغط 1011 hPa
الرؤية 10 كم أو أكثر
غيوم متفرقة على ارتفاع 1200 قدم

METAR: FOOL 171900Z 24006KT 9999 SCT012 28/24 Q1011 NOSIG

زمن: 20:18 (19:18 UTC)

توقعات

تاريخ ووقت الإصدار 2ساعات و 18 دقيقة قبل الساعة 17:00UTC
التوقعات صالحة من17 الساعة 18 UTC إلى 18 الساعة 24 UTC
ريح 7 عقدة من الجنوب الغربي
الرؤية 10 كم أو أكثر
غيوم متفرقة على ارتفاع 1200 قدم
مؤقت
من 17 الساعة 20 UTC إلى 18 الساعة 02 UTC
غيوم متفرقة على ارتفاع 1000 قدم
غيوم قليلة على ارتفاع 2000 قدم, مزنة ركامية.
عاصفة رعدية
نظرية الاحتمالات 30% :
مؤقت
من 18 الساعة 03 UTC إلى 18 الساعة 08 UTC
الرؤية: 4500 متر
غيوم مفككة على ارتفاع 800 قدم
غيوم قليلة على ارتفاع 1800 قدم, مزنة ركامية.
عاصفة رعدية, مطر

TAF: FOOL 171700Z 1718/1824 22007KT 9999 SCT012 TEMPO 1720/1802 TS SCT010 FEW020CB PROB30 TEMPO 1803/1808 4500 TSRA BKN008 FEW018CB

أرصاد الطقس والتوقعات من أكثر من 4000 مطار (تقارير الطقس للمطار METAR والتنبؤ بالطقس بالمطارTAF).

المحطات المتاحة هي النقط الصفراء والحمراء على الخريطة.

حرك المؤشر فوق النقطة لمعرفة اسم المحطة.

ثم انقر لمعرفة أرصاد وتوقعات الطقس.

لتغيير الخارطة: اضغط على الأزرار الخضراء مع رمز الصليب الأسود للتكبير. على الزر الأخضر مع شرطة للتصغير، أو على الأسهم الخضراء للخرائط المجاورة.


METAR-TAF: